CMBH weather

Mount Belcher Heliport
Mount Belcher, British Columbia, Canada

Public forecast

Using degrees Celsius for public forecast. Weather courtesy of forecast.io.

Closest aviation weather report (METAR) to Mount Belcher Heliport

Closest report is Victoria International Airport, 11.6 nm (21.5 km) SSE. Retrieved 2020/06/02 13:00 UTC (18 minutes ago):

CYYJ 021300Z 00000KT 30SM SCT110 BKN210 BKN250 09/07 A3016 RMK AC3CI2CI2 SLP215

Closest aviation forecast (TAF) to Mount Belcher Heliport

Closest forecast is Victoria International Airport, 11.6 nm (21.5 km) SSE. Retrieved 2020/06/02 12:42 UTC (36 minutes ago):

TAF CYYJ 021138Z 0212/0312 VRB03KT P6SM SCT090 BKN200 FM021500 20005KT P6SM BKN090 OVC180 TEMPO 0215/0217 P6SM -SHRA OVC070 FM021700 28008KT P6SM -RA OVC070 FM021900 18008KT P6SM -RA SCT020 OVC050 TEMPO 0219/0222 OVC020 FM022200 15010KT P6SM OVC015 TEMPO 0222/0309 BKN030 BECMG 0303/0305 27008KT FM030900 27005KT P6SM SCT030 RMK NXT FCST BY 021800Z